createdAt,value
2022-11-19T00:00:20.128Z,-0.90
2022-11-19T00:05:24.117Z,-0.74
2022-11-19T00:10:30.046Z,-0.86
2022-11-19T00:15:35.670Z,-1.17
2022-11-19T00:20:39.623Z,-1.13
2022-11-19T00:25:45.333Z,-1.24
2022-11-19T00:30:49.264Z,-1.03
2022-11-19T00:35:56.726Z,-1.44
2022-11-19T00:41:02.128Z,-1.18
2022-11-19T00:46:06.051Z,-1.31
2022-11-19T00:51:10.418Z,-1.65
2022-11-19T00:56:20.744Z,-1.46
2022-11-19T01:01:26.275Z,-1.36
2022-11-19T01:06:30.037Z,-1.32
2022-11-19T01:11:37.778Z,-1.37
2022-11-19T01:16:42.939Z,-1.44
2022-11-19T01:21:46.633Z,-1.37
2022-11-19T01:26:51.573Z,-1.44
2022-11-19T01:31:55.219Z,-1.45
2022-11-19T01:36:58.779Z,-1.65
2022-11-19T01:42:03.895Z,-1.43
2022-11-19T01:47:07.400Z,-1.54
2022-11-19T01:52:11.549Z,-1.55
2022-11-19T01:57:19.281Z,-1.56
2022-11-19T02:02:23.855Z,-1.72
2022-11-19T02:07:29.641Z,-1.78
2022-11-19T02:12:43.452Z,-1.86
2022-11-19T02:18:07.832Z,-1.74
2022-11-19T02:23:53.793Z,-1.71
2022-11-19T02:29:10.975Z,-1.89
2022-11-19T02:34:21.801Z,-1.99
2022-11-19T02:39:30.978Z,-1.90
2022-11-19T02:44:56.400Z,-1.98
2022-11-19T02:50:07.430Z,-2.08
2022-11-19T02:55:13.593Z,-1.91
2022-11-19T03:00:35.367Z,-1.92
2022-11-19T03:05:45.043Z,-2.08
2022-11-19T03:10:56.370Z,-1.82
2022-11-19T03:16:17.777Z,-2.03
2022-11-19T03:21:30.460Z,-1.75
2022-11-19T03:26:39.262Z,-1.84
2022-11-19T03:31:48.999Z,-2.11
2022-11-19T03:36:57.536Z,-1.96
2022-11-19T03:42:01.427Z,-1.99
2022-11-19T03:47:12.058Z,-1.83
2022-11-19T03:52:20.684Z,-2.40
2022-11-19T03:57:26.274Z,-2.35
2022-11-19T04:02:29.866Z,-2.12
2022-11-19T04:07:34.883Z,-2.11
2022-11-19T04:12:38.488Z,-2.12
2022-11-19T04:17:42.127Z,-2.08
2022-11-19T04:22:47.319Z,-2.20
2022-11-19T04:27:51.067Z,-1.80
2022-11-19T04:32:54.768Z,-1.96
2022-11-19T04:38:00.041Z,-2.13
2022-11-19T04:43:03.629Z,-2.22
2022-11-19T04:48:07.830Z,-2.23
2022-11-19T04:53:12.789Z,-2.35
2022-11-19T04:58:16.623Z,-2.38
2022-11-19T05:03:20.397Z,-2.32
2022-11-19T05:08:25.607Z,-2.17
2022-11-19T05:13:29.136Z,-2.08
2022-11-19T05:18:32.668Z,-1.72
2022-11-19T05:23:37.657Z,-2.25
2022-11-19T05:28:41.174Z,-2.24
2022-11-19T05:33:44.623Z,-2.23
2022-11-19T05:38:49.571Z,-2.39
2022-11-19T05:43:53.158Z,-2.26
2022-11-19T05:48:56.695Z,-2.27
2022-11-19T05:54:01.612Z,-2.20
2022-11-19T05:59:05.219Z,-2.21
2022-11-19T06:04:09.848Z,-2.21
2022-11-19T06:09:14.890Z,-2.16
2022-11-19T06:14:21.992Z,-2.02
2022-11-19T06:19:26.624Z,-1.86
2022-11-19T06:24:32.254Z,-1.90
2022-11-19T06:29:36.000Z,-1.91
2022-11-19T06:34:39.970Z,-1.80
2022-11-19T06:39:44.929Z,-2.06
2022-11-19T06:44:48.440Z,-2.18
2022-11-19T06:49:52.554Z,-2.13
2022-11-19T06:54:57.640Z,-1.68
2022-11-19T07:00:01.347Z,-2.05
2022-11-19T07:05:06.009Z,-1.95
2022-11-19T07:10:11.471Z,-1.67
2022-11-19T07:15:16.531Z,-2.03
2022-11-19T07:20:20.489Z,-1.81
2022-11-19T07:25:26.070Z,-2.12
2022-11-19T07:30:31.703Z,-1.82
2022-11-19T07:35:36.133Z,-1.78
2022-11-19T07:40:41.425Z,-1.96
2022-11-19T07:45:45.340Z,-1.63
2022-11-19T07:50:56.462Z,-1.88
2022-11-19T07:56:02.679Z,-1.75
2022-11-19T08:01:10.403Z,-1.71
2022-11-19T08:06:14.397Z,-1.46
2022-11-19T08:11:19.654Z,-1.69
2022-11-19T08:16:40.914Z,-1.29
2022-11-19T08:21:46.419Z,-0.93
2022-11-19T08:26:52.484Z,-0.81
2022-11-19T08:31:56.317Z,-1.54
2022-11-19T08:36:59.977Z,-1.86
2022-11-19T08:42:23.551Z,-1.33
2022-11-19T08:47:27.074Z,-1.57
2022-11-19T08:52:30.679Z,-1.22
2022-11-19T08:57:35.730Z,-1.54
2022-11-19T09:02:39.393Z,-1.45
2022-11-19T09:07:43.235Z,-1.42
2022-11-19T09:12:49.411Z,-1.11
2022-11-19T09:17:53.359Z,-1.50
2022-11-19T09:22:56.831Z,-1.33
2022-11-19T09:28:02.157Z,-1.41
2022-11-19T09:33:05.654Z,-1.10
2022-11-19T09:38:09.140Z,-1.37
2022-11-19T09:43:21.804Z,-1.27
2022-11-19T09:48:33.923Z,-1.05
2022-11-19T09:53:44.775Z,-1.12
2022-11-19T09:58:49.929Z,-1.25
2022-11-19T10:03:55.730Z,-0.96
2022-11-19T10:09:17.131Z,-0.84
2022-11-19T10:14:43.074Z,-0.75
2022-11-19T10:20:05.009Z,-0.81
2022-11-19T10:25:18.038Z,-0.72
2022-11-19T10:30:25.380Z,-0.88
2022-11-19T10:35:33.256Z,-0.42
2022-11-19T10:40:43.318Z,-0.73
2022-11-19T10:45:48.566Z,-1.22
2022-11-19T10:50:53.150Z,-0.79
2022-11-19T10:56:00.341Z,-0.09
2022-11-19T11:01:15.699Z,-0.65
2022-11-19T11:06:19.442Z,-0.64
2022-11-19T11:11:47.995Z,-0.38
2022-11-19T11:16:53.117Z,0.05
2022-11-19T11:21:58.964Z,0.56
2022-11-19T11:27:22.661Z,0.51
2022-11-19T11:32:31.916Z,0.14
2022-11-19T11:37:35.875Z,-0.01
2022-11-19T11:42:39.409Z,-0.11
2022-11-19T11:47:44.387Z,-0.51
2022-11-19T11:52:51.385Z,-0.58
2022-11-19T11:57:57.010Z,0.00
2022-11-19T12:03:03.867Z,-0.41
2022-11-19T12:08:15.008Z,-0.04
2022-11-19T12:13:42.525Z,-0.26
2022-11-19T12:18:58.052Z,-0.74
2022-11-19T12:24:18.785Z,-0.77
2022-11-19T12:29:29.374Z,-0.51
2022-11-19T12:35:04.372Z,-0.91
2022-11-19T12:40:22.927Z,-0.86
2022-11-19T12:45:36.915Z,-0.90
2022-11-19T12:50:50.851Z,-1.01
2022-11-19T12:56:06.284Z,-1.32
2022-11-19T13:01:15.451Z,-0.88
2022-11-19T13:06:26.889Z,-0.42
2022-11-19T13:11:37.537Z,-0.31
2022-11-19T13:16:42.920Z,-0.15
2022-11-19T13:21:54.741Z,0.19
2022-11-19T13:27:03.814Z,0.27
2022-11-19T13:32:16.727Z,0.32
2022-11-19T13:37:39.635Z,-0.24
2022-11-19T13:43:17.555Z,-0.20
2022-11-19T13:48:27.995Z,-0.08
2022-11-19T13:53:39.049Z,-0.35
2022-11-19T13:58:48.525Z,-0.76
2022-11-19T14:04:09.498Z,-0.62
2022-11-19T14:09:27.499Z,-0.75
2022-11-19T14:15:05.804Z,-0.91
2022-11-19T14:20:49.441Z,-1.08
2022-11-19T14:26:12.245Z,-1.12
2022-11-19T14:31:16.793Z,-1.46
2022-11-19T14:36:23.372Z,-1.49
2022-11-19T14:41:33.703Z,-1.64
2022-11-19T14:46:48.673Z,-1.76
2022-11-19T14:51:55.239Z,-1.99
2022-11-19T14:57:18.030Z,-1.93
2022-11-19T15:02:30.521Z,-2.15
2022-11-19T15:07:43.149Z,-2.22
2022-11-19T15:12:50.514Z,-2.51
2022-11-19T15:18:07.990Z,-2.52
2022-11-19T15:23:19.486Z,-2.70
2022-11-19T15:28:41.858Z,-2.96
2022-11-19T15:34:03.982Z,-3.13
2022-11-19T15:39:17.598Z,-3.13
2022-11-19T15:44:24.883Z,-3.25
2022-11-19T15:49:31.303Z,-3.38
2022-11-19T15:54:36.319Z,-3.53
2022-11-19T15:59:42.759Z,-3.64
2022-11-19T16:04:47.977Z,-3.84
2022-11-19T16:09:52.234Z,-3.82
2022-11-19T16:15:15.035Z,-3.94
2022-11-19T16:20:22.004Z,-4.00
2022-11-19T16:25:32.270Z,-4.10
2022-11-19T16:30:50.863Z,-4.14
2022-11-19T16:36:12.182Z,-4.32
2022-11-19T16:41:36.011Z,-4.38
2022-11-19T16:46:41.544Z,-4.37
2022-11-19T16:51:53.766Z,-4.73
2022-11-19T16:56:57.304Z,-4.72
2022-11-19T17:02:03.496Z,-4.76
2022-11-19T17:07:07.172Z,-4.67
2022-11-19T17:12:27.201Z,-4.93
2022-11-19T17:17:41.275Z,-4.94
2022-11-19T17:22:44.945Z,-5.00
2022-11-19T17:27:52.629Z,-5.16
2022-11-19T17:33:00.636Z,-5.16
2022-11-19T17:38:11.448Z,-5.16
2022-11-19T17:43:33.999Z,-5.33
2022-11-19T17:48:41.551Z,-5.31
2022-11-19T17:53:45.962Z,-5.41
2022-11-19T17:58:49.547Z,-5.42
2022-11-19T18:03:54.430Z,-5.57
2022-11-19T18:08:58.596Z,-5.54
2022-11-19T18:14:03.203Z,-5.63
2022-11-19T18:19:14.258Z,-5.71
2022-11-19T18:24:18.252Z,-5.74
2022-11-19T18:29:22.842Z,-5.80
2022-11-19T18:34:28.066Z,-5.82
2022-11-19T18:39:31.700Z,-5.92
2022-11-19T18:44:35.346Z,-5.88
2022-11-19T18:49:41.026Z,-5.97
2022-11-19T18:54:45.267Z,-6.14
2022-11-19T18:59:48.862Z,-6.17
2022-11-19T19:04:53.918Z,-6.14
2022-11-19T19:09:58.272Z,-6.26
2022-11-19T19:15:01.795Z,-6.17
2022-11-19T19:20:07.730Z,-6.25
2022-11-19T19:25:11.285Z,-6.24
2022-11-19T19:30:15.562Z,-6.40
2022-11-19T19:35:20.663Z,-6.31
2022-11-19T19:40:24.266Z,-6.37
2022-11-19T19:45:27.892Z,-6.50
2022-11-19T19:50:33.072Z,-6.53
2022-11-19T19:55:36.887Z,-6.59
2022-11-19T20:00:40.492Z,-6.59
2022-11-19T20:05:50.594Z,-6.74
2022-11-19T20:10:54.503Z,-6.76
2022-11-19T20:15:59.269Z,-6.87
2022-11-19T20:21:05.461Z,-6.86
2022-11-19T20:26:11.811Z,-6.91
2022-11-19T20:31:17.211Z,-6.96
2022-11-19T20:36:24.544Z,-6.97
2022-11-19T20:41:46.882Z,-6.97
2022-11-19T20:46:52.794Z,-7.01
2022-11-19T20:51:58.244Z,-7.07
2022-11-19T20:57:02.631Z,-7.11
2022-11-19T21:02:06.417Z,-7.20
2022-11-19T21:07:11.675Z,-7.26
2022-11-19T21:12:15.302Z,-7.40
2022-11-19T21:17:19.195Z,-7.33
2022-11-19T21:22:24.237Z,-7.43
2022-11-19T21:27:27.981Z,-7.44
2022-11-19T21:32:31.519Z,-7.39
2022-11-19T21:37:36.784Z,-7.37
2022-11-19T21:42:40.337Z,-7.54
2022-11-19T21:47:44.185Z,-7.54
2022-11-19T21:52:49.379Z,-7.59
2022-11-19T21:57:53.008Z,-7.56
2022-11-19T22:02:56.567Z,-7.62
2022-11-19T22:08:01.876Z,-7.69
2022-11-19T22:13:05.541Z,-7.72
2022-11-19T22:18:09.123Z,-7.63
2022-11-19T22:23:14.130Z,-7.71
2022-11-19T22:28:17.648Z,-7.77
2022-11-19T22:33:21.536Z,-7.83
2022-11-19T22:38:26.485Z,-7.87
2022-11-19T22:43:31.476Z,-7.92
2022-11-19T22:48:35.658Z,-7.91
2022-11-19T22:53:40.995Z,-8.00
2022-11-19T22:58:44.727Z,-8.00
2022-11-19T23:03:48.599Z,-8.10
2022-11-19T23:08:54.164Z,-8.05
2022-11-19T23:13:57.681Z,-8.05
2022-11-19T23:19:01.226Z,-8.11
2022-11-19T23:24:07.076Z,-8.19
2022-11-19T23:29:10.829Z,-8.26
2022-11-19T23:34:14.320Z,-8.28
2022-11-19T23:39:19.966Z,-8.25
2022-11-19T23:44:23.746Z,-8.33
2022-11-19T23:49:27.334Z,-8.63
2022-11-19T23:54:32.181Z,-8.39
2022-11-19T23:59:36.953Z,-8.40
